createdAt,value
2023-05-16T00:03:03.487Z,13.95
2023-05-16T00:06:06.097Z,24.30
2023-05-16T00:09:08.355Z,20.60
2023-05-16T00:12:11.464Z,14.50
2023-05-16T00:15:14.181Z,21.42
2023-05-16T00:18:17.014Z,16.17
2023-05-16T00:21:20.018Z,18.08
2023-05-16T00:24:23.998Z,19.65
2023-05-16T00:27:26.272Z,21.05
2023-05-16T00:30:30.605Z,19.73
2023-05-16T00:33:35.073Z,19.17
2023-05-16T00:36:37.465Z,19.75
2023-05-16T00:39:39.718Z,22.02
2023-05-16T00:42:41.860Z,23.85
2023-05-16T00:45:44.574Z,20.60
2023-05-16T00:48:46.800Z,23.02
2023-05-16T00:51:49.215Z,21.33
2023-05-16T00:54:52.056Z,20.33
2023-05-16T00:57:54.198Z,17.08
2023-05-16T01:00:59.200Z,15.57
2023-05-16T01:04:01.863Z,13.57
2023-05-16T01:07:04.173Z,9.20
2023-05-16T01:10:07.529Z,15.20
2023-05-16T01:13:45.913Z,20.50
2023-05-16T01:17:06.712Z,25.50
2023-05-16T01:20:25.932Z,19.00
2023-05-16T01:23:47.055Z,18.27
2023-05-16T01:26:51.821Z,20.25
2023-05-16T01:29:57.053Z,15.45
2023-05-16T01:32:59.507Z,13.70
2023-05-16T01:36:11.905Z,12.32
2023-05-16T01:39:42.548Z,17.35
2023-05-16T01:42:47.450Z,15.38
2023-05-16T01:45:56.059Z,14.77
2023-05-16T01:49:13.354Z,16.73
2023-05-16T01:52:42.953Z,11.57
2023-05-16T01:55:58.395Z,19.02
2023-05-16T01:59:02.386Z,13.50
2023-05-16T02:02:04.709Z,16.70
2023-05-16T02:05:07.233Z,20.58
2023-05-16T02:08:09.801Z,14.77
2023-05-16T02:11:12.138Z,20.40
2023-05-16T02:14:14.300Z,16.52
2023-05-16T02:17:16.429Z,16.02
2023-05-16T02:20:18.487Z,23.63
2023-05-16T02:23:20.704Z,18.35
2023-05-16T02:26:23.506Z,25.70
2023-05-16T02:29:25.585Z,21.60
2023-05-16T02:32:28.135Z,16.88
2023-05-16T02:35:30.342Z,21.13
2023-05-16T02:38:32.396Z,15.48
2023-05-16T02:41:34.785Z,21.35
2023-05-16T02:44:36.865Z,21.85
2023-05-16T02:47:38.989Z,17.08
2023-05-16T02:50:42.540Z,18.08
2023-05-16T02:53:44.708Z,28.27
2023-05-16T02:56:46.807Z,23.48
2023-05-16T02:59:49.065Z,24.45
2023-05-16T03:02:51.189Z,20.42
2023-05-16T03:05:53.420Z,18.95
2023-05-16T03:08:55.472Z,17.52
2023-05-16T03:11:57.702Z,31.42
2023-05-16T03:15:02.021Z,16.90
2023-05-16T03:18:04.443Z,26.48
2023-05-16T03:21:06.549Z,35.38
2023-05-16T03:24:10.006Z,18.35
2023-05-16T03:27:13.120Z,19.33
2023-05-16T03:30:16.449Z,18.55
2023-05-16T03:33:24.509Z,20.40
2023-05-16T03:36:27.824Z,24.38
2023-05-16T03:39:30.139Z,17.43
2023-05-16T03:42:35.119Z,17.02
2023-05-16T03:45:37.191Z,27.38
2023-05-16T03:48:39.308Z,28.27
2023-05-16T03:51:42.320Z,21.13
2023-05-16T03:54:44.595Z,18.30
2023-05-16T03:57:47.955Z,15.18
2023-05-16T04:00:50.088Z,23.92
2023-05-16T04:03:52.162Z,22.30
2023-05-16T04:06:54.276Z,27.80
2023-05-16T04:09:58.840Z,31.98
2023-05-16T04:13:02.652Z,21.60
2023-05-16T04:16:05.127Z,29.48
2023-05-16T04:19:08.495Z,24.10
2023-05-16T04:22:10.681Z,16.88
2023-05-16T04:25:13.434Z,21.33
2023-05-16T04:28:16.792Z,18.80
2023-05-16T04:31:18.945Z,22.25
2023-05-16T04:34:23.238Z,21.27
2023-05-16T04:37:25.308Z,23.05
2023-05-16T04:40:27.925Z,17.88
2023-05-16T04:43:30.582Z,16.80
2023-05-16T04:46:32.636Z,26.75
2023-05-16T04:49:35.776Z,18.50
2023-05-16T04:52:38.498Z,21.92
2023-05-16T04:55:41.757Z,29.05
2023-05-16T04:58:43.887Z,22.83
2023-05-16T05:01:46.013Z,18.25
2023-05-16T05:04:48.613Z,26.02
2023-05-16T05:07:50.909Z,17.85
2023-05-16T05:10:53.554Z,22.40
2023-05-16T05:13:55.843Z,18.85
2023-05-16T05:16:58.063Z,13.55
2023-05-16T05:20:02.688Z,20.42
2023-05-16T05:23:05.533Z,23.35
2023-05-16T05:26:07.688Z,28.10
2023-05-16T05:29:09.856Z,24.20
2023-05-16T05:32:12.623Z,18.95
2023-05-16T05:35:15.737Z,32.33
2023-05-16T05:38:17.898Z,24.30
2023-05-16T05:41:20.244Z,19.52
2023-05-16T05:44:22.595Z,23.42
2023-05-16T05:47:25.062Z,25.65
2023-05-16T05:50:27.543Z,26.00
2023-05-16T05:53:29.822Z,17.60
2023-05-16T05:56:32.115Z,16.60
2023-05-16T05:59:34.303Z,22.58
2023-05-16T06:02:37.092Z,17.27
2023-05-16T06:05:39.592Z,13.40
2023-05-16T06:08:41.880Z,12.38
2023-05-16T06:11:45.990Z,26.95
2023-05-16T06:14:48.190Z,19.35
2023-05-16T06:17:50.674Z,12.52
2023-05-16T06:20:53.497Z,27.05
2023-05-16T06:23:55.840Z,17.40
2023-05-16T06:26:58.304Z,23.58
2023-05-16T06:30:00.345Z,18.30
2023-05-16T06:33:02.663Z,18.00
2023-05-16T06:36:05.172Z,20.63
2023-05-16T06:39:07.861Z,19.15
2023-05-16T06:42:11.166Z,13.80
2023-05-16T06:45:13.475Z,21.90
2023-05-16T06:48:16.241Z,17.27
2023-05-16T06:51:18.431Z,20.88
2023-05-16T06:54:20.890Z,20.30
2023-05-16T06:57:24.056Z,19.40
2023-05-16T07:00:27.213Z,14.93
2023-05-16T07:03:29.771Z,29.65
2023-05-16T07:06:32.123Z,30.45
2023-05-16T07:09:34.468Z,24.90
2023-05-16T07:12:40.054Z,40.97
2023-05-16T07:15:42.208Z,38.42
2023-05-16T07:18:44.497Z,28.02
2023-05-16T07:21:47.009Z,24.45
2023-05-16T07:24:49.286Z,19.08
2023-05-16T07:27:51.496Z,24.38
2023-05-16T07:30:54.811Z,30.35
2023-05-16T07:33:57.560Z,23.08
2023-05-16T07:36:59.855Z,16.77
2023-05-16T07:40:02.906Z,15.48
2023-05-16T07:43:05.224Z,20.43
2023-05-16T07:46:07.781Z,17.65
2023-05-16T07:49:09.987Z,19.48
2023-05-16T07:52:12.426Z,17.17
2023-05-16T07:55:15.079Z,25.50
2023-05-16T07:58:17.326Z,15.35
2023-05-16T08:01:20.692Z,14.48
2023-05-16T08:04:22.891Z,10.98
2023-05-16T08:07:25.049Z,15.18
2023-05-16T08:10:27.643Z,15.52
2023-05-16T08:13:29.973Z,17.33
2023-05-16T08:16:32.846Z,15.88
2023-05-16T08:19:35.766Z,21.35
2023-05-16T08:22:37.884Z,9.30
2023-05-16T08:25:40.481Z,8.68
2023-05-16T08:28:43.402Z,14.57
2023-05-16T08:31:45.880Z,12.25
2023-05-16T08:34:48.291Z,13.05
2023-05-16T08:37:50.693Z,8.93
2023-05-16T08:40:52.789Z,5.03
2023-05-16T08:43:55.093Z,7.63
2023-05-16T08:46:57.935Z,7.55
2023-05-16T08:50:02.902Z,10.35
2023-05-16T08:53:09.904Z,7.63
2023-05-16T08:56:14.830Z,16.02
2023-05-16T08:59:17.789Z,17.77
2023-05-16T09:02:21.774Z,11.00
2023-05-16T09:05:24.396Z,6.00
2023-05-16T09:08:26.834Z,10.60
2023-05-16T09:11:29.522Z,13.20
2023-05-16T09:14:31.749Z,8.63
2023-05-16T09:17:43.128Z,11.60
2023-05-16T09:20:50.269Z,11.82
2023-05-16T09:24:06.191Z,5.53
2023-05-16T09:27:13.954Z,12.35
2023-05-16T09:30:19.359Z,13.02
2023-05-16T09:33:27.054Z,11.68
2023-05-16T09:36:29.412Z,11.05
2023-05-16T09:39:31.616Z,9.02
2023-05-16T09:42:34.234Z,10.77
2023-05-16T09:45:47.863Z,11.85
2023-05-16T09:48:52.068Z,13.77
2023-05-16T09:51:54.405Z,8.63
2023-05-16T09:54:56.522Z,11.38
2023-05-16T09:57:58.672Z,11.90
2023-05-16T10:01:01.545Z,7.63
2023-05-16T10:04:03.806Z,16.85
2023-05-16T10:07:10.067Z,13.75
2023-05-16T10:10:14.067Z,15.25
2023-05-16T10:13:29.076Z,14.48
2023-05-16T10:16:31.866Z,10.77
2023-05-16T10:19:38.899Z,8.25
2023-05-16T10:22:44.045Z,13.10
2023-05-16T10:25:49.145Z,8.63
2023-05-16T10:28:54.808Z,12.27
2023-05-16T10:31:58.383Z,4.85
2023-05-16T10:35:03.274Z,12.05
2023-05-16T10:38:08.076Z,10.18
2023-05-16T10:41:11.362Z,7.07
2023-05-16T10:44:16.237Z,13.05
2023-05-16T10:47:21.933Z,5.47
2023-05-16T10:50:57.458Z,7.63
2023-05-16T10:57:24.067Z,14.15
2023-05-16T11:00:26.286Z,14.50
2023-05-16T11:03:29.205Z,9.32
2023-05-16T11:06:43.984Z,7.80
2023-05-16T11:09:46.908Z,13.02
2023-05-16T11:12:50.794Z,11.98
2023-05-16T11:16:29.006Z,13.50
2023-05-16T11:19:36.194Z,6.20
2023-05-16T11:22:41.544Z,10.30
2023-05-16T11:25:46.192Z,7.05
2023-05-16T11:28:50.825Z,9.45
2023-05-16T11:31:53.625Z,6.65
2023-05-16T11:34:56.735Z,8.95
2023-05-16T11:37:58.813Z,4.50
2023-05-16T11:41:08.193Z,10.52
2023-05-16T11:44:12.699Z,11.27
2023-05-16T11:47:15.033Z,13.43
2023-05-16T11:50:20.118Z,9.98
2023-05-16T11:53:22.690Z,8.45
2023-05-16T11:56:25.840Z,12.23
2023-05-16T11:59:28.340Z,9.35
2023-05-16T12:02:30.622Z,3.65
2023-05-16T12:05:34.231Z,6.93
2023-05-16T12:08:37.065Z,6.40
2023-05-16T12:11:44.118Z,10.38
2023-05-16T12:14:46.619Z,10.43
2023-05-16T12:17:49.239Z,4.30
2023-05-16T12:20:52.495Z,9.43
2023-05-16T12:23:57.983Z,9.00
2023-05-16T12:27:00.195Z,12.27
2023-05-16T12:30:02.416Z,4.13
2023-05-16T12:33:13.587Z,5.40
2023-05-16T12:36:17.305Z,8.52
2023-05-16T12:39:20.526Z,5.82
2023-05-16T12:42:22.649Z,13.10
2023-05-16T12:45:27.978Z,8.82
2023-05-16T12:48:37.210Z,8.60
2023-05-16T12:51:41.161Z,5.32
2023-05-16T12:54:43.405Z,3.55
2023-05-16T12:57:48.010Z,5.72
2023-05-16T13:00:50.266Z,3.13
2023-05-16T13:03:52.498Z,6.35
2023-05-16T13:06:59.203Z,5.35
2023-05-16T13:10:02.195Z,5.80
2023-05-16T13:13:04.697Z,8.18
2023-05-16T13:16:07.160Z,5.20
2023-05-16T13:19:09.526Z,17.63
2023-05-16T13:22:11.944Z,6.30
2023-05-16T13:25:18.014Z,5.45
2023-05-16T13:28:20.291Z,8.43
2023-05-16T13:31:22.884Z,6.50
2023-05-16T13:34:25.427Z,3.40
2023-05-16T13:37:27.659Z,3.67
2023-05-16T13:40:30.109Z,7.20
2023-05-16T13:43:32.391Z,9.70
2023-05-16T13:46:35.190Z,6.75
2023-05-16T13:49:37.957Z,4.78
2023-05-16T13:52:40.585Z,8.55
2023-05-16T13:55:42.969Z,30.80
2023-05-16T13:58:59.740Z,11.35
2023-05-16T14:02:06.253Z,6.22
2023-05-16T14:05:09.669Z,12.70
2023-05-16T14:08:11.849Z,2.55
2023-05-16T14:11:14.119Z,4.70
2023-05-16T14:14:17.468Z,4.38
2023-05-16T14:17:20.800Z,5.72
2023-05-16T14:20:23.183Z,8.88
2023-05-16T14:23:25.520Z,4.75
2023-05-16T14:26:27.701Z,11.40
2023-05-16T14:29:30.430Z,4.45
2023-05-16T14:32:33.696Z,6.57
2023-05-16T14:35:38.495Z,4.82
2023-05-16T14:38:41.868Z,11.23
2023-05-16T14:41:44.411Z,15.55
2023-05-16T14:44:46.891Z,24.48
2023-05-16T14:47:49.295Z,11.32
2023-05-16T14:50:52.153Z,11.52
2023-05-16T14:53:54.788Z,11.05
2023-05-16T14:56:57.005Z,9.65
2023-05-16T14:59:59.200Z,12.70
2023-05-16T15:03:01.517Z,9.63
2023-05-16T15:06:07.832Z,10.90
2023-05-16T15:09:10.101Z,9.50
2023-05-16T15:12:12.493Z,21.52
2023-05-16T15:15:16.600Z,20.75
2023-05-16T15:18:18.986Z,12.70
2023-05-16T15:21:21.205Z,15.07
2023-05-16T15:24:23.349Z,10.13
2023-05-16T15:27:26.273Z,10.30
2023-05-16T15:30:29.713Z,7.63
2023-05-16T15:33:32.752Z,25.25
2023-05-16T15:36:35.303Z,10.13
2023-05-16T15:39:37.701Z,9.15
2023-05-16T15:42:42.458Z,8.77
2023-05-16T15:45:45.575Z,8.75
2023-05-16T15:48:47.800Z,13.88
2023-05-16T15:51:55.232Z,8.82
2023-05-16T15:54:57.621Z,9.10
2023-05-16T15:57:59.833Z,6.45
2023-05-16T16:01:03.318Z,7.03
2023-05-16T16:04:05.827Z,13.18
2023-05-16T16:07:08.231Z,11.77
2023-05-16T16:10:12.806Z,11.30
2023-05-16T16:13:14.996Z,13.98
2023-05-16T16:16:18.248Z,13.30
2023-05-16T16:19:20.503Z,8.40
2023-05-16T16:22:23.126Z,6.60
2023-05-16T16:25:25.874Z,10.93
2023-05-16T16:28:28.930Z,6.70
2023-05-16T16:31:31.104Z,15.87
2023-05-16T16:34:35.295Z,8.18
2023-05-16T16:37:37.569Z,9.13
2023-05-16T16:40:40.189Z,9.38
2023-05-16T16:43:42.376Z,7.47
2023-05-16T16:46:44.850Z,13.70
2023-05-16T16:49:46.936Z,9.75
2023-05-16T16:52:49.157Z,9.95
2023-05-16T16:55:52.026Z,10.55
2023-05-16T16:58:54.918Z,5.07
2023-05-16T17:01:57.226Z,8.43
2023-05-16T17:05:00.706Z,20.40
2023-05-16T17:08:03.156Z,11.32
2023-05-16T17:11:05.952Z,4.03
2023-05-16T17:14:10.769Z,6.68
2023-05-16T17:17:15.570Z,5.20
2023-05-16T17:20:17.708Z,5.88
2023-05-16T17:23:20.367Z,10.02
2023-05-16T17:26:22.918Z,5.97
2023-05-16T17:29:25.156Z,12.63
2023-05-16T17:32:27.526Z,9.15
2023-05-16T17:35:30.188Z,13.73
2023-05-16T17:38:32.821Z,7.50
2023-05-16T17:41:35.593Z,5.38
2023-05-16T17:44:38.068Z,8.77
2023-05-16T17:47:40.942Z,8.02
2023-05-16T17:50:43.729Z,11.52
2023-05-16T17:53:47.174Z,5.65
2023-05-16T17:56:51.029Z,5.57
2023-05-16T17:59:53.467Z,8.02
2023-05-16T18:02:56.053Z,6.50
2023-05-16T18:05:58.418Z,9.32
2023-05-16T18:09:01.473Z,4.80
2023-05-16T18:12:03.868Z,9.47
2023-05-16T18:15:07.707Z,9.32
2023-05-16T18:18:10.421Z,9.13
2023-05-16T18:21:12.706Z,8.80
2023-05-16T18:24:16.144Z,8.43
2023-05-16T18:27:18.301Z,9.00
2023-05-16T18:30:21.081Z,6.18
2023-05-16T18:33:23.563Z,6.47
2023-05-16T18:36:25.918Z,9.25
2023-05-16T18:39:28.143Z,8.55
2023-05-16T18:42:30.555Z,6.40
2023-05-16T18:45:33.778Z,8.88
2023-05-16T18:48:36.257Z,5.27
2023-05-16T18:51:38.929Z,9.85
2023-05-16T18:54:41.177Z,5.45
2023-05-16T18:57:44.154Z,9.95
2023-05-16T19:00:47.145Z,9.18
2023-05-16T19:03:49.905Z,8.30
2023-05-16T19:06:56.277Z,7.45
2023-05-16T19:09:59.702Z,5.50
2023-05-16T19:13:07.083Z,6.35
2023-05-16T19:16:09.354Z,6.50
2023-05-16T19:19:11.539Z,13.25
2023-05-16T19:22:13.655Z,8.45
2023-05-16T19:25:16.081Z,7.30
2023-05-16T19:28:18.342Z,11.55
2023-05-16T19:31:21.135Z,7.40
2023-05-16T19:37:28.792Z,8.70
2023-05-16T19:40:32.626Z,6.78
2023-05-16T19:43:35.026Z,15.20
2023-05-16T19:46:38.456Z,7.05
2023-05-16T19:49:41.214Z,6.75
2023-05-16T19:52:43.696Z,5.72
2023-05-16T19:55:48.025Z,9.18
2023-05-16T19:58:50.181Z,5.88
2023-05-16T20:01:52.529Z,8.85
2023-05-16T20:04:54.884Z,6.05
2023-05-16T20:07:57.276Z,4.80
2023-05-16T20:10:59.844Z,11.27
2023-05-16T20:14:02.049Z,5.85
2023-05-16T20:17:04.286Z,4.80
2023-05-16T20:20:08.925Z,12.77
2023-05-16T20:23:11.214Z,9.07
2023-05-16T20:26:15.006Z,3.72
2023-05-16T20:29:17.137Z,3.55
2023-05-16T20:32:20.201Z,8.23
2023-05-16T20:35:22.373Z,5.93
2023-05-16T20:38:26.540Z,6.60
2023-05-16T20:41:28.775Z,7.35
2023-05-16T20:44:31.033Z,5.93
2023-05-16T20:47:33.177Z,4.68
2023-05-16T20:50:36.440Z,6.38
2023-05-16T20:53:38.741Z,9.90
2023-05-16T20:56:41.130Z,5.50
2023-05-16T20:59:43.343Z,5.38
2023-05-16T21:03:02.714Z,6.22
2023-05-16T21:06:06.941Z,8.07
2023-05-16T21:09:09.365Z,7.13
2023-05-16T21:12:11.854Z,7.43
2023-05-16T21:15:13.968Z,4.70
2023-05-16T21:18:18.673Z,8.65
2023-05-16T21:21:21.838Z,6.72
2023-05-16T21:24:24.124Z,6.50
2023-05-16T21:27:26.248Z,8.27
2023-05-16T21:30:28.424Z,6.28
2023-05-16T21:33:30.617Z,5.32
2023-05-16T21:36:33.654Z,9.40
2023-05-16T21:39:36.036Z,5.50
2023-05-16T21:42:38.380Z,5.78
2023-05-16T21:45:40.856Z,7.57
2023-05-16T21:48:43.129Z,6.05
2023-05-16T21:51:45.620Z,9.25
2023-05-16T21:54:52.000Z,4.18
2023-05-16T21:57:54.564Z,3.08
2023-05-16T22:00:56.593Z,9.93
2023-05-16T22:03:59.180Z,6.95
2023-05-16T22:07:01.755Z,4.30
2023-05-16T22:10:05.438Z,8.68
2023-05-16T22:16:11.249Z,4.85
2023-05-16T22:19:15.547Z,2.97
2023-05-16T22:25:19.892Z,4.80
2023-05-16T22:28:22.197Z,5.15
2023-05-16T22:31:24.702Z,6.15
2023-05-16T22:34:26.947Z,8.98
2023-05-16T22:37:29.398Z,7.13
2023-05-16T22:40:31.680Z,5.75
2023-05-16T22:43:36.381Z,7.90
2023-05-16T22:46:38.746Z,2.22
2023-05-16T22:49:47.724Z,5.32
2023-05-16T22:52:50.329Z,6.18
2023-05-16T22:55:52.523Z,22.25
2023-05-16T22:58:54.833Z,3.60
2023-05-16T23:01:57.319Z,3.92
2023-05-16T23:04:59.503Z,3.08
2023-05-16T23:08:03.346Z,11.63
2023-05-16T23:11:05.951Z,4.10
2023-05-16T23:14:08.103Z,3.72
2023-05-16T23:17:10.352Z,4.88
2023-05-16T23:20:17.567Z,7.90
2023-05-16T23:23:19.685Z,2.53
2023-05-16T23:26:22.229Z,4.15
2023-05-16T23:29:24.466Z,6.45
2023-05-16T23:32:26.963Z,4.05
2023-05-16T23:35:29.633Z,5.57
2023-05-16T23:38:31.987Z,4.45
2023-05-16T23:41:34.374Z,5.72
2023-05-16T23:44:37.105Z,7.13
2023-05-16T23:47:39.876Z,6.45
2023-05-16T23:50:42.027Z,2.53
2023-05-16T23:53:44.107Z,3.58
2023-05-16T23:56:46.491Z,5.45
2023-05-16T23:59:48.710Z,3.25
